Aviation Digital Data Service (ADDS)

Output produced by METARs form (0337 UTC 24 February 2017)
found at http://www.aviationweather.gov/adds/metars/
 
OKBK 240300Z 28003KT CAVOK 09/06 Q1022 NOSIG
TAF OKBK 232245Z 2400/2506 34010KT 7000 SKC